메인 페이지
METAR-TAF:

METAR-TAF

공항 :

베나지르 부토 국제공항

이슬라마바드, 파키스탄

위도: 33-37N, 경도: 073-06E, 고도: 507m

현재 날씨관측

예보는 44분 전, 12:00시(UTC)에 발표되었습니다.
남서10kt
온도 39°C
습도 33%
기압 999 hPa
시정 10km 이상
고도 4000ft 상공 구름 조금

METAR: OPRN 241200Z 23010KT 9999 FEW040 39/20 Q0999 NOSIG RMK A2952

시각: 17:44 (12:44 UTC)

예보

예보는 3 시간 14분 전, 09:30시(UTC)에 발표되었습니다.
예보 대상 시간: 24일 12시부터 25일 18시까지 (UTC)
서남서10kt, 순간 최대 풍속 20kt
시정 10km 이상
1500m 미만 상공 구름 및 적란운 없음
전환 중
25일 00시부터 25일 02시까지 (UTC)
시정: 5000m
연무
전환 중
25일 06시부터 25일 08시까지 (UTC)
시정 10km 이상
1500m 미만 상공 구름 및 적란운 없음
일시적
25일 10시부터 25일 15시까지 (UTC)
시정 10km 이상
고도 4000ft 상공 구름 보통
고도 10000ft 상공 구름 보통

TAF: OPRN 240930Z 2412/2518 25010G20KT CAVOK BECMG 2500/2502 5000 HZ NSC BECMG 2506/2508 CAVOK TEMPO 2510/2515 9999 SCT040 SCT100

4,000개 이상의 공항 관측 자료 및 예보 (METAR 및 TAF 보고).

지도상에서 검색 가능한 기상관측소가 노란 점과 빨간 점으로 표시되어 있습니다.

기상관측소 명을 보려면 표시 위로 마우스를 이동하세요.

날씨 관측과 예보를 보려면 클릭하세요.

지도 변경 : 확대하려면 엑스 표시가 있는 녹색 버튼, 축소하려면 빼기 표시가 있는 녹색 버튼, 다음 페이지의 지도를 보려면 녹색 화살표를 클릭하세요.


METAR-TAF: